Time;durP1;ratioP1;P1;durP2;ratioP2;P2;SDS_P1;SDS_P2;PMS_P1;PMS_P2;Temp;Humidity;BMP_temperature;BMP_pressure;BME280_temperature;BME280_humidity;BME280_pressure;Samples;Min_cycle;Max_cycle;Signal;HPM_P1;HPM_P2
2021/06/22 00:00:28;;;;;;;1.02;0.90;;;;;;;;;;5041105;28;20038;-58
2021/06/22 00:02:55;;;;;;;1.45;0.70;;;;;;;;;;5025058;28;20037;-58
2021/06/22 00:05:21;;;;;;;1.83;0.82;;;;;;;;;;5041628;28;20124;-58
2021/06/22 00:07:47;;;;;;;1.23;0.90;;;;;;;;;;5022808;28;20033;-58
2021/06/22 00:10:13;;;;;;;1.63;0.80;;;;;;;;;;5041930;28;20057;-58
2021/06/22 00:12:39;;;;;;;0.90;0.80;;;;;;;;;;5041762;28;20084;-58
2021/06/22 00:15:05;;;;;;;1.52;0.70;;;;;;;;;;5041545;28;20091;-58
2021/06/22 00:17:31;;;;;;;0.57;0.57;;;;;;;;;;5034461;28;20083;-58
2021/06/22 00:19:56;;;;;;;3.10;0.90;;;;;;;;;;5041412;28;20618;-58
2021/06/22 00:22:22;;;;;;;0.90;0.77;;;;;;;;;;5040447;28;20033;-58
2021/06/22 00:24:47;;;;;;;1.85;0.77;;;;;;;;;;5041323;28;20044;-58
2021/06/22 00:27:13;;;;;;;3.28;0.70;;;;;;;;;;5040665;28;20037;-58
2021/06/22 00:29:43;;;;;;;2.15;0.90;;;;;;;;;;5034297;28;20044;-58
2021/06/22 00:32:08;;;;;;;2.05;0.82;;;;;;;;;;5041341;28;20037;-58
2021/06/22 00:34:34;;;;;;;0.95;0.80;;;;;;;;;;5041383;28;20087;-58
2021/06/22 00:36:59;;;;;;;1.02;0.73;;;;;;;;;;5035527;28;20478;-57
2021/06/22 00:39:25;;;;;;;1.45;0.70;;;;;;;;;;5040566;28;20044;-58
2021/06/22 00:41:50;;;;;;;1.17;0.82;;;;;;;;;;5041755;28;20482;-58
2021/06/22 00:44:16;;;;;;;1.23;0.80;;;;;;;;;;5040932;28;20084;-57
2021/06/22 00:46:41;;;;;;;2.22;1.00;;;;;;;;;;5040661;28;21519;-58
2021/06/22 00:49:07;;;;;;;1.73;0.93;;;;;;;;;;5040255;28;20033;-58
2021/06/22 00:51:37;;;;;;;1.60;0.70;;;;;;;;;;5019230;28;20025;-58
2021/06/22 00:54:04;;;;;;;2.05;1.05;;;;;;;;;;5018862;28;20033;-57
2021/06/22 00:56:34;;;;;;;1.35;0.80;;;;;;;;;;5018737;28;20029;-58
2021/06/22 00:59:00;;;;;;;1.20;0.65;;;;;;;;;;5041133;28;20477;-58
2021/06/22 01:01:26;;;;;;;1.58;0.80;;;;;;;;;;5040015;28;20025;-58
2021/06/22 01:03:52;;;;;;;1.50;0.90;;;;;;;;;;5040105;28;20560;-58
2021/06/22 01:06:20;;;;;;;1.45;0.95;;;;;;;;;;5026982;28;20038;-58
2021/06/22 01:09:05;;;;;;;2.67;1.15;;;;;;;;;;5041594;28;20107;-57
2021/06/22 01:11:33;;;;;;;1.25;0.98;;;;;;;;;;5041537;28;20963;-57
2021/06/22 01:13:59;;;;;;;3.85;1.10;;;;;;;;;;5010078;28;20103;-58
2021/06/22 01:16:26;;;;;;;1.80;0.93;;;;;;;;;;5040609;28;20071;-57
2021/06/22 01:19:00;;;;;;;1.92;1.00;;;;;;;;;;5040719;28;20038;-58
2021/06/22 01:21:28;;;;;;;2.25;1.00;;;;;;;;;;5041066;28;20829;-58
2021/06/22 01:24:19;;;;;;;3.38;1.23;;;;;;;;;;5014785;28;20033;-58
2021/06/22 01:26:55;;;;;;;2.05;1.10;;;;;;;;;;5040093;28;20054;-58
2021/06/22 01:29:20;;;;;;;1.42;1.00;;;;;;;;;;5040010;28;20091;-58
2021/06/22 01:31:47;;;;;;;2.13;1.20;;;;;;;;;;5040763;28;20029;-58
2021/06/22 01:34:13;;;;;;;2.55;1.17;;;;;;;;;;5035455;28;20038;-58
2021/06/22 01:36:40;;;;;;;3.92;1.20;;;;;;;;;;5040522;28;20025;-58
2021/06/22 01:39:10;;;;;;;3.15;1.55;;;;;;;;;;5040818;28;20490;-58
2021/06/22 01:41:36;;;;;;;3.00;1.23;;;;;;;;;;5038639;28;20398;-57
2021/06/22 01:44:02;;;;;;;2.15;1.15;;;;;;;;;;5040068;28;20481;-58
2021/06/22 01:46:28;;;;;;;2.20;0.98;;;;;;;;;;5041402;28;20112;-58
2021/06/22 01:48:53;;;;;;;2.03;1.20;;;;;;;;;;5040215;28;20315;-58
2021/06/22 01:51:25;;;;;;;2.35;1.08;;;;;;;;;;5040389;28;20037;-57
2021/06/22 01:53:54;;;;;;;2.10;1.40;;;;;;;;;;5040044;28;20268;-57
2021/06/22 01:56:21;;;;;;;3.13;1.45;;;;;;;;;;5023733;28;20033;-58
2021/06/22 01:58:47;;;;;;;2.65;1.15;;;;;;;;;;5039867;28;20528;-58
2021/06/22 02:01:31;;;;;;;3.88;1.70;;;;;;;;;;5041214;28;20045;-57
2021/06/22 02:04:03;;;;;;;3.17;1.38;;;;;;;;;;5040542;28;20041;-58
2021/06/22 02:06:29;;;;;;;2.42;1.38;;;;;;;;;;5039769;28;20944;-58
2021/06/22 02:09:15;;;;;;;2.75;1.42;;;;;;;;;;5040633;28;20056;-57
2021/06/22 02:11:40;;;;;;;3.25;1.58;;;;;;;;;;5039161;28;20501;-58
2021/06/22 02:14:07;;;;;;;2.70;1.52;;;;;;;;;;5039760;28;20034;-58
2021/06/22 02:16:33;;;;;;;2.83;1.50;;;;;;;;;;5041003;28;20432;-57
2021/06/22 02:19:02;;;;;;;3.17;1.58;;;;;;;;;;5029561;28;20021;-58
2021/06/22 02:21:27;;;;;;;3.25;1.50;;;;;;;;;;5039644;28;20434;-58
2021/06/22 02:23:54;;;;;;;3.90;1.50;;;;;;;;;;5040342;28;20088;-58
2021/06/22 02:26:22;;;;;;;2.15;1.40;;;;;;;;;;5039756;28;20041;-58
2021/06/22 02:28:48;;;;;;;2.75;1.65;;;;;;;;;;5033530;28;20434;-58
2021/06/22 02:31:14;;;;;;;2.80;1.30;;;;;;;;;;5039439;28;20033;-58
2021/06/22 02:33:40;;;;;;;3.92;1.52;;;;;;;;;;5042086;28;20132;-58
2021/06/22 02:36:07;;;;;;;3.20;1.60;;;;;;;;;;5044056;28;20033;-58
2021/06/22 02:38:42;;;;;;;2.67;1.30;;;;;;;;;;5043342;28;20524;-58
2021/06/22 02:41:12;;;;;;;3.70;1.50;;;;;;;;;;5043903;28;20036;-57
2021/06/22 02:43:40;;;;;;;2.42;1.40;;;;;;;;;;5042635;28;20033;-58
2021/06/22 02:46:08;;;;;;;4.72;1.50;;;;;;;;;;5042536;28;20045;-58
2021/06/22 02:48:34;;;;;;;3.25;1.50;;;;;;;;;;5042030;28;20942;-58
2021/06/22 02:51:01;;;;;;;2.75;1.70;;;;;;;;;;5044237;28;20033;-57
2021/06/22 02:53:33;;;;;;;3.40;1.42;;;;;;;;;;5042425;28;20030;-58
2021/06/22 02:55:58;;;;;;;4.43;1.70;;;;;;;;;;5043983;28;20033;-58
2021/06/22 02:58:32;;;;;;;2.22;1.35;;;;;;;;;;5041340;28;20033;-57
2021/06/22 03:00:58;;;;;;;2.47;1.27;;;;;;;;;;5042621;28;20044;-58
2021/06/22 03:03:25;;;;;;;3.38;1.40;;;;;;;;;;5025546;28;20076;-58
2021/06/22 03:06:00;;;;;;;2.90;1.30;;;;;;;;;;5041917;28;20042;-58
2021/06/22 03:08:42;;;;;;;2.15;1.40;;;;;;;;;;5041838;28;20521;-58
2021/06/22 03:11:08;;;;;;;3.13;1.30;;;;;;;;;;5041996;28;20034;-57
2021/06/22 03:13:36;;;;;;;2.42;1.40;;;;;;;;;;5042140;28;20057;-57
2021/06/22 03:16:03;;;;;;;1.92;1.23;;;;;;;;;;5044102;28;20065;-58
2021/06/22 03:18:29;;;;;;;1.70;1.20;;;;;;;;;;5041345;28;20022;-58
2021/06/22 03:20:56;;;;;;;4.50;1.40;;;;;;;;;;5043048;28;20044;-57
2021/06/22 03:23:23;;;;;;;2.75;1.42;;;;;;;;;;5043522;28;20464;-58
2021/06/22 03:25:50;;;;;;;2.20;1.55;;;;;;;;;;5041846;28;20049;-58
2021/06/22 03:28:17;;;;;;;2.53;1.40;;;;;;;;;;5042828;28;20032;-58
2021/06/22 03:31:12;;;;;;;1.88;1.42;;;;;;;;;;5033042;28;20048;-58
2021/06/22 03:33:37;;;;;;;1.75;1.20;;;;;;;;;;5010910;28;20037;-58
2021/06/22 03:36:03;;;;;;;2.17;1.10;;;;;;;;;;5017235;28;20025;-58
2021/06/22 03:38:29;;;;;;;2.67;1.63;;;;;;;;;;5024685;28;20864;-58
2021/06/22 03:40:55;;;;;;;2.75;1.35;;;;;;;;;;5042581;28;20029;-58
2021/06/22 03:43:22;;;;;;;1.65;1.25;;;;;;;;;;5034669;28;20026;-58
2021/06/22 03:45:55;;;;;;;3.72;1.63;;;;;;;;;;5041406;28;20037;-58
2021/06/22 03:48:23;;;;;;;2.63;1.45;;;;;;;;;;5042258;28;20041;-58
2021/06/22 03:50:48;;;;;;;2.95;1.30;;;;;;;;;;5041952;28;20030;-58
2021/06/22 03:53:14;;;;;;;2.42;1.23;;;;;;;;;;5038832;28;20114;-58
2021/06/22 03:55:40;;;;;;;2.97;1.55;;;;;;;;;;5021426;28;20049;-57
2021/06/22 03:58:34;;;;;;;3.28;1.40;;;;;;;;;;5028089;28;20528;-58
2021/06/22 04:01:00;;;;;;;2.55;1.45;;;;;;;;;;5041307;28;20033;-57
2021/06/22 04:03:31;;;;;;;2.45;1.30;;;;;;;;;;5044423;28;20033;-58
2021/06/22 04:06:17;;;;;;;3.78;1.60;;;;;;;;;;5004736;28;20053;-58
2021/06/22 04:08:45;;;;;;;3.03;1.45;;;;;;;;;;5040999;28;20033;-58
2021/06/22 04:11:18;;;;;;;3.40;1.38;;;;;;;;;;5040154;28;21040;-58
2021/06/22 04:13:44;;;;;;;2.05;1.23;;;;;;;;;;5041265;28;20038;-57
2021/06/22 04:16:10;;;;;;;1.42;1.10;;;;;;;;;;5040114;28;20037;-58
2021/06/22 04:18:37;;;;;;;2.25;1.35;;;;;;;;;;5039022;28;20048;-58
2021/06/22 04:21:06;;;;;;;3.05;1.63;;;;;;;;;;5041535;28;20148;-57
2021/06/22 04:23:42;;;;;;;2.50;1.45;;;;;;;;;;5041185;28;20894;-58
2021/06/22 04:26:08;;;;;;;2.95;1.40;;;;;;;;;;5041152;28;20104;-58
2021/06/22 04:28:33;;;;;;;4.57;1.73;;;;;;;;;;5040629;28;20098;-58
2021/06/22 04:30:59;;;;;;;3.92;1.48;;;;;;;;;;5041883;28;20405;-58
2021/06/22 04:33:24;;;;;;;2.80;1.45;;;;;;;;;;5040036;28;20043;-58
2021/06/22 04:35:50;;;;;;;4.00;1.50;;;;;;;;;;5039775;28;20033;-58
2021/06/22 04:38:16;;;;;;;3.47;1.52;;;;;;;;;;5023754;28;20040;-58
2021/06/22 04:40:41;;;;;;;2.25;1.58;;;;;;;;;;5024063;28;20045;-58
2021/06/22 04:43:07;;;;;;;2.58;1.40;;;;;;;;;;5040295;28;20029;-58
2021/06/22 04:45:33;;;;;;;2.28;1.40;;;;;;;;;;5023194;28;20045;-58
2021/06/22 04:47:59;;;;;;;3.03;1.27;;;;;;;;;;5039504;28;20037;-58
2021/06/22 04:50:25;;;;;;;4.20;1.50;;;;;;;;;;5040170;28;20030;-57
2021/06/22 04:52:50;;;;;;;4.20;1.60;;;;;;;;;;5040217;28;20117;-58
2021/06/22 04:55:17;;;;;;;3.28;1.50;;;;;;;;;;5040966;28;20115;-57
2021/06/22 04:57:44;;;;;;;1.98;1.40;;;;;;;;;;5040227;28;20117;-58
2021/06/22 05:00:10;;;;;;;2.72;1.60;;;;;;;;;;5040975;28;20061;-58
2021/06/22 05:02:35;;;;;;;2.85;1.48;;;;;;;;;;5041775;28;20030;-58
2021/06/22 05:05:04;;;;;;;1.92;1.25;;;;;;;;;;5040683;28;20041;-58
2021/06/22 05:07:30;;;;;;;3.85;1.55;;;;;;;;;;5022985;28;20834;-58
2021/06/22 05:09:55;;;;;;;3.88;1.50;;;;;;;;;;5039884;28;20038;-58
2021/06/22 05:12:21;;;;;;;2.72;1.30;;;;;;;;;;5040132;28;20045;-58
2021/06/22 05:14:47;;;;;;;3.95;1.58;;;;;;;;;;5039588;28;20043;-58
2021/06/22 05:17:12;;;;;;;2.50;1.13;;;;;;;;;;5034225;28;20049;-58
2021/06/22 05:19:38;;;;;;;3.33;1.30;;;;;;;;;;5039551;28;20238;-58
2021/06/22 05:22:03;;;;;;;2.92;1.30;;;;;;;;;;5041305;28;20021;-58
2021/06/22 05:24:29;;;;;;;2.65;1.35;;;;;;;;;;5041069;28;20048;-58
2021/06/22 05:26:54;;;;;;;2.50;1.40;;;;;;;;;;5039621;28;20041;-58
2021/06/22 05:29:20;;;;;;;2.35;1.30;;;;;;;;;;5040174;28;20811;-58
2021/06/22 05:31:45;;;;;;;2.92;1.40;;;;;;;;;;5039895;28;20030;-58
2021/06/22 05:34:11;;;;;;;3.00;1.35;;;;;;;;;;5040325;28;20121;-58
2021/06/22 05:36:36;;;;;;;3.05;1.20;;;;;;;;;;5041082;28;20219;-58
2021/06/22 05:39:02;;;;;;;2.40;1.30;;;;;;;;;;5040416;28;20037;-58
2021/06/22 05:41:28;;;;;;;2.83;1.30;;;;;;;;;;5040991;28;20038;-58
2021/06/22 05:43:53;;;;;;;2.20;1.27;;;;;;;;;;5041206;28;20029;-58
2021/06/22 05:46:19;;;;;;;2.78;1.15;;;;;;;;;;5040629;28;20490;-58
2021/06/22 05:48:44;;;;;;;3.03;1.63;;;;;;;;;;5039319;28;20037;-58
2021/06/22 05:51:10;;;;;;;2.08;1.15;;;;;;;;;;5040651;28;20030;-58
2021/06/22 05:53:35;;;;;;;2.78;1.30;;;;;;;;;;5039745;28;20806;-58
2021/06/22 05:56:01;;;;;;;2.35;1.30;;;;;;;;;;5040670;28;20052;-58
2021/06/22 05:58:26;;;;;;;3.03;1.40;;;;;;;;;;5039410;28;20040;-58
2021/06/22 06:00:51;;;;;;;2.38;1.45;;;;;;;;;;5033554;28;20038;-58
2021/06/22 06:03:17;;;;;;;2.17;1.20;;;;;;;;;;5040426;28;20040;-57
2021/06/22 06:05:43;;;;;;;3.58;1.40;;;;;;;;;;5040333;28;20230;-58
2021/06/22 06:08:08;;;;;;;2.58;1.33;;;;;;;;;;5041254;28;20025;-58
2021/06/22 06:10:34;;;;;;;2.80;1.30;;;;;;;;;;5043549;28;20037;-58
2021/06/22 06:12:59;;;;;;;3.38;1.30;;;;;;;;;;5036563;28;20096;-58
2021/06/22 06:15:25;;;;;;;3.03;1.42;;;;;;;;;;5042156;28;20033;-58
2021/06/22 06:17:50;;;;;;;4.07;1.40;;;;;;;;;;5026540;28;20496;-58
2021/06/22 06:20:16;;;;;;;2.33;1.33;;;;;;;;;;5043984;28;20025;-58
2021/06/22 06:22:42;;;;;;;2.53;1.20;;;;;;;;;;5043995;28;20401;-58
2021/06/22 06:25:09;;;;;;;2.28;1.30;;;;;;;;;;5044373;28;20890;-58
2021/06/22 06:30:22;;;;;;;2.33;1.63;;;;;;;;;;5044142;28;20037;-58
2021/06/22 06:32:48;;;;;;;2.42;1.30;;;;;;;;;;5044090;28;20120;-58
2021/06/22 06:35:14;;;;;;;2.38;1.35;;;;;;;;;;5042163;28;20474;-58
2021/06/22 06:37:40;;;;;;;2.13;1.10;;;;;;;;;;5043573;28;20068;-58
2021/06/22 06:40:06;;;;;;;2.13;1.40;;;;;;;;;;5043300;28;20567;-58
2021/06/22 06:42:31;;;;;;;2.65;1.52;;;;;;;;;;5044349;28;21184;-58
2021/06/22 06:44:57;;;;;;;1.90;1.67;;;;;;;;;;5025595;28;20032;-59
2021/06/22 06:47:22;;;;;;;4.65;1.85;;;;;;;;;;5043398;28;20033;-58
2021/06/22 06:49:48;;;;;;;2.78;1.70;;;;;;;;;;5058072;28;20029;-58
2021/06/22 06:52:13;;;;;;;2.40;1.77;;;;;;;;;;5042578;28;20041;-58
2021/06/22 06:54:39;;;;;;;4.13;1.67;;;;;;;;;;5019181;28;20042;-58
2021/06/22 06:57:05;;;;;;;1.65;1.40;;;;;;;;;;5043101;28;20036;-58
2021/06/22 06:59:30;;;;;;;2.58;1.65;;;;;;;;;;5041199;28;20084;-59
2021/06/22 07:01:56;;;;;;;2.20;1.70;;;;;;;;;;5042017;28;20048;-59
2021/06/22 07:04:21;;;;;;;2.22;1.50;;;;;;;;;;5041111;28;20048;-58
2021/06/22 07:06:47;;;;;;;3.45;1.80;;;;;;;;;;5035520;28;20049;-58
2021/06/22 07:09:13;;;;;;;3.15;1.67;;;;;;;;;;5043132;28;20116;-58
2021/06/22 07:11:38;;;;;;;3.03;1.75;;;;;;;;;;5042759;28;20120;-58
2021/06/22 07:14:04;;;;;;;2.70;1.75;;;;;;;;;;5043061;28;20025;-58
2021/06/22 07:16:29;;;;;;;2.17;1.80;;;;;;;;;;5041808;28;20476;-58
2021/06/22 07:18:55;;;;;;;2.90;2.00;;;;;;;;;;5042792;28;20029;-58
2021/06/22 07:21:20;;;;;;;3.85;1.65;;;;;;;;;;5042930;28;20550;-58
2021/06/22 07:23:46;;;;;;;4.28;2.30;;;;;;;;;;5042817;28;20029;-58
2021/06/22 07:26:12;;;;;;;2.83;1.58;;;;;;;;;;5024049;28;20160;-58
2021/06/22 07:28:37;;;;;;;2.53;1.45;;;;;;;;;;5040799;28;20079;-58
2021/06/22 07:31:04;;;;;;;2.42;1.80;;;;;;;;;;5041390;28;20126;-58
2021/06/22 07:33:29;;;;;;;3.15;1.65;;;;;;;;;;5041468;28;20153;-58
2021/06/22 07:35:55;;;;;;;1.88;1.60;;;;;;;;;;5042540;28;20041;-58
2021/06/22 07:38:20;;;;;;;2.63;1.65;;;;;;;;;;5041782;28;20073;-58
2021/06/22 07:40:46;;;;;;;2.92;1.88;;;;;;;;;;5041673;28;20053;-58
2021/06/22 07:43:12;;;;;;;4.15;1.80;;;;;;;;;;5033600;28;20750;-58
2021/06/22 07:45:38;;;;;;;3.15;1.85;;;;;;;;;;5042055;28;20147;-58
2021/06/22 07:48:04;;;;;;;2.60;1.88;;;;;;;;;;5042687;28;20523;-58
2021/06/22 07:50:29;;;;;;;3.15;1.92;;;;;;;;;;5042146;28;20033;-58
2021/06/22 07:52:55;;;;;;;3.08;1.70;;;;;;;;;;5042066;28;20034;-58
2021/06/22 07:55:21;;;;;;;4.25;1.98;;;;;;;;;;5041692;28;20501;-58
2021/06/22 07:57:48;;;;;;;2.10;1.73;;;;;;;;;;5034077;28;20037;-58
2021/06/22 08:00:24;;;;;;;3.58;2.10;;;;;;;;;;5024582;28;20573;-58
2021/06/22 08:02:53;;;;;;;2.50;1.88;;;;;;;;;;5042291;28;20084;-58
2021/06/22 08:05:18;;;;;;;3.28;2.10;;;;;;;;;;5042033;28;20050;-58
2021/06/22 08:07:43;;;;;;;3.60;2.13;;;;;;;;;;5040148;28;20033;-58
2021/06/22 08:10:09;;;;;;;3.65;1.85;;;;;;;;;;5041567;28;20037;-58
2021/06/22 08:12:35;;;;;;;2.70;1.70;;;;;;;;;;5041797;28;20044;-58
2021/06/22 08:15:01;;;;;;;3.40;1.85;;;;;;;;;;5041018;28;20037;-59
2021/06/22 08:17:26;;;;;;;4.15;2.10;;;;;;;;;;5034799;28;20034;-58
2021/06/22 08:19:51;;;;;;;3.33;1.80;;;;;;;;;;5041581;28;20573;-58
2021/06/22 08:22:17;;;;;;;2.67;1.95;;;;;;;;;;5041165;28;20075;-58
2021/06/22 08:24:42;;;;;;;3.25;1.83;;;;;;;;;;5041741;28;20052;-61
2021/06/22 08:27:08;;;;;;;3.72;1.92;;;;;;;;;;5042368;28;20042;-62
2021/06/22 08:29:33;;;;;;;3.25;1.98;;;;;;;;;;5041327;28;20033;-62
2021/06/22 08:31:59;;;;;;;2.60;1.98;;;;;;;;;;5036846;28;20043;-62
2021/06/22 08:34:24;;;;;;;3.80;1.92;;;;;;;;;;5042123;28;20365;-62
2021/06/22 08:36:50;;;;;;;2.15;1.80;;;;;;;;;;5042192;28;20046;-62
2021/06/22 08:39:15;;;;;;;2.88;1.92;;;;;;;;;;5041702;28;20044;-62
2021/06/22 08:41:41;;;;;;;2.67;2.10;;;;;;;;;;5040727;28;20037;-62
2021/06/22 08:44:08;;;;;;;3.38;1.83;;;;;;;;;;5024438;28;20498;-62
2021/06/22 08:46:34;;;;;;;3.10;1.80;;;;;;;;;;5023678;28;20041;-62
2021/06/22 08:49:00;;;;;;;2.75;1.80;;;;;;;;;;5041824;28;20458;-62
2021/06/22 08:51:26;;;;;;;3.03;2.03;;;;;;;;;;5041357;28;20116;-61
2021/06/22 08:53:51;;;;;;;3.67;2.00;;;;;;;;;;5041500;28;20548;-62
2021/06/22 08:56:17;;;;;;;3.05;1.77;;;;;;;;;;5041637;28;20546;-62
2021/06/22 08:58:42;;;;;;;2.58;1.80;;;;;;;;;;5057044;28;20448;-62
2021/06/22 09:01:08;;;;;;;3.83;1.90;;;;;;;;;;5041270;28;20037;-61
2021/06/22 09:03:33;;;;;;;2.40;1.35;;;;;;;;;;5025413;28;20358;-62
2021/06/22 09:05:59;;;;;;;2.20;1.60;;;;;;;;;;5032856;28;20045;-62
2021/06/22 09:08:33;;;;;;;2.95;1.60;;;;;;;;;;5040185;28;20127;-62
2021/06/22 09:11:09;;;;;;;3.15;1.63;;;;;;;;;;5041296;28;20084;-62
2021/06/22 09:13:35;;;;;;;1.95;1.40;;;;;;;;;;5042028;28;20040;-61
2021/06/22 09:16:01;;;;;;;3.60;2.05;;;;;;;;;;5041225;28;20367;-62
2021/06/22 09:18:29;;;;;;;2.65;1.60;;;;;;;;;;5041084;28;20033;-62
2021/06/22 09:20:56;;;;;;;3.28;1.70;;;;;;;;;;5034918;28;20038;-62
2021/06/22 09:23:29;;;;;;;3.25;1.63;;;;;;;;;;5040927;28;20045;-61
2021/06/22 09:25:56;;;;;;;1.98;1.20;;;;;;;;;;5040832;28;20049;-61
2021/06/22 09:28:23;;;;;;;2.67;1.50;;;;;;;;;;5023145;28;20045;-62
2021/06/22 09:30:53;;;;;;;2.78;1.42;;;;;;;;;;5040051;28;20106;-61
2021/06/22 09:33:20;;;;;;;2.35;1.40;;;;;;;;;;5040033;28;20034;-62
2021/06/22 09:35:46;;;;;;;2.22;1.45;;;;;;;;;;5040860;28;20518;-62
2021/06/22 09:38:12;;;;;;;2.78;1.50;;;;;;;;;;5041124;28;20141;-62
2021/06/22 09:40:37;;;;;;;2.95;1.60;;;;;;;;;;5039404;28;20042;-62
2021/06/22 09:43:03;;;;;;;2.35;1.60;;;;;;;;;;5036233;28;20048;-62
2021/06/22 09:45:29;;;;;;;2.55;1.63;;;;;;;;;;5044624;28;20033;-61
2021/06/22 09:47:59;;;;;;;2.67;1.70;;;;;;;;;;5043491;28;20456;-63
2021/06/22 09:50:30;;;;;;;2.88;2.10;;;;;;;;;;5038487;28;20497;-63
2021/06/22 09:53:29;;;;;;;2.75;1.98;;;;;;;;;;5044806;28;20037;-63
2021/06/22 09:55:54;;;;;;;3.03;1.70;;;;;;;;;;5042894;28;20079;-62
2021/06/22 09:58:42;;;;;;;1.92;1.60;;;;;;;;;;5041985;28;20546;-61
2021/06/22 10:01:31;;;;;;;3.67;1.75;;;;;;;;;;5026452;28;20060;-61
2021/06/22 10:04:11;;;;;;;3.40;1.80;;;;;;;;;;5042370;28;20033;-62
2021/06/22 10:06:36;;;;;;;4.25;2.08;;;;;;;;;;5041745;28;20045;-61
2021/06/22 10:09:02;;;;;;;3.35;1.90;;;;;;;;;;5043693;28;20033;-62
2021/06/22 10:11:31;;;;;;;3.83;1.63;;;;;;;;;;5044269;28;20044;-62
2021/06/22 10:13:57;;;;;;;3.28;2.00;;;;;;;;;;5043242;28;20115;-62
2021/06/22 10:16:23;;;;;;;2.50;1.60;;;;;;;;;;5003529;28;20452;-62
2021/06/22 10:18:48;;;;;;;3.30;1.75;;;;;;;;;;5059932;28;20041;-62
2021/06/22 10:21:13;;;;;;;5.15;1.90;;;;;;;;;;5043736;28;20038;-62
2021/06/22 10:23:39;;;;;;;3.03;1.58;;;;;;;;;;5044677;28;20045;-62
2021/06/22 10:26:05;;;;;;;2.95;1.30;;;;;;;;;;5037709;28;20042;-62
2021/06/22 10:28:30;;;;;;;3.38;1.70;;;;;;;;;;5026006;28;20087;-62
2021/06/22 10:30:56;;;;;;;3.33;1.80;;;;;;;;;;5037052;28;20037;-62
2021/06/22 10:33:21;;;;;;;4.65;1.90;;;;;;;;;;5043746;28;20028;-62
2021/06/22 10:35:47;;;;;;;2.45;1.70;;;;;;;;;;5042811;28;20026;-62
2021/06/22 10:38:13;;;;;;;3.20;1.50;;;;;;;;;;5036180;28;20034;-62
2021/06/22 10:40:38;;;;;;;2.28;1.50;;;;;;;;;;5025343;28;20038;-62
2021/06/22 10:43:06;;;;;;;2.55;1.70;;;;;;;;;;5042271;28;20041;-63
2021/06/22 10:45:31;;;;;;;2.45;1.50;;;;;;;;;;5044406;28;20047;-62
2021/06/22 10:47:59;;;;;;;3.17;1.60;;;;;;;;;;5042867;28;20403;-62
2021/06/22 10:50:25;;;;;;;2.22;1.60;;;;;;;;;;5044281;28;20041;-62
2021/06/22 10:53:07;;;;;;;2.72;1.42;;;;;;;;;;5043422;28;20500;-63
2021/06/22 10:55:45;;;;;;;2.08;1.50;;;;;;;;;;5044356;28;20084;-62
2021/06/22 10:58:12;;;;;;;1.92;1.48;;;;;;;;;;5042713;28;20045;-62
2021/06/22 11:00:41;;;;;;;5.22;1.92;;;;;;;;;;5042606;28;20208;-62
2021/06/22 11:03:09;;;;;;;4.03;1.77;;;;;;;;;;5042811;28;20030;-62
2021/06/22 11:05:39;;;;;;;2.50;1.60;;;;;;;;;;5045472;28;20041;-62
2021/06/22 11:08:13;;;;;;;3.72;1.50;;;;;;;;;;5026058;28;20103;-62
2021/06/22 11:10:40;;;;;;;2.38;1.52;;;;;;;;;;5042792;28;20030;-62
2021/06/22 11:13:06;;;;;;;2.00;1.45;;;;;;;;;;5042948;28;20065;-62
2021/06/22 11:15:44;;;;;;;3.20;1.70;;;;;;;;;;5042333;28;20030;-62
2021/06/22 11:18:10;;;;;;;2.65;1.30;;;;;;;;;;5041557;28;20482;-62
2021/06/22 11:20:36;;;;;;;3.10;1.77;;;;;;;;;;5037797;28;20061;-62
2021/06/22 11:23:07;;;;;;;2.65;1.40;;;;;;;;;;5042465;28;20037;-62
2021/06/22 11:25:45;;;;;;;1.48;1.35;;;;;;;;;;5041575;28;20041;-62
2021/06/22 11:28:11;;;;;;;2.17;1.48;;;;;;;;;;5025026;28;20099;-62
2021/06/22 11:31:06;;;;;;;4.40;1.73;;;;;;;;;;5041852;28;20033;-62
2021/06/22 11:33:44;;;;;;;1.80;1.10;;;;;;;;;;5028040;28;20144;-62
2021/06/22 11:36:16;;;;;;;1.92;1.40;;;;;;;;;;5041288;28;20037;-62
2021/06/22 11:38:42;;;;;;;1.92;1.20;;;;;;;;;;5042866;28;20061;-62
2021/06/22 11:41:15;;;;;;;3.15;1.75;;;;;;;;;;5036941;28;20032;-62
2021/06/22 11:44:09;;;;;;;2.88;1.48;;;;;;;;;;5041310;28;20030;-62
2021/06/22 11:46:35;;;;;;;4.03;1.45;;;;;;;;;;5042281;28;20076;-63
2021/06/22 11:49:01;;;;;;;2.20;1.30;;;;;;;;;;5017261;28;20025;-62
2021/06/22 11:51:51;;;;;;;2.65;1.55;;;;;;;;;;5042024;28;20584;-62
2021/06/22 11:54:18;;;;;;;2.47;1.58;;;;;;;;;;5041928;28;20463;-62
2021/06/22 11:56:44;;;;;;;3.60;1.60;;;;;;;;;;5025017;28;20037;-62
2021/06/22 11:59:10;;;;;;;2.63;1.50;;;;;;;;;;5041904;28;20029;-62
2021/06/22 12:01:35;;;;;;;2.30;1.70;;;;;;;;;;5040716;28;20041;-62
2021/06/22 12:04:01;;;;;;;2.92;1.50;;;;;;;;;;5019122;28;20038;-62
2021/06/22 12:06:27;;;;;;;2.10;1.52;;;;;;;;;;5040930;28;20046;-62
2021/06/22 12:08:52;;;;;;;3.25;1.60;;;;;;;;;;5041483;28;20033;-62
2021/06/22 12:11:32;;;;;;;2.95;1.70;;;;;;;;;;5042104;28;20110;-62
2021/06/22 12:13:57;;;;;;;2.10;1.35;;;;;;;;;;5041501;28;20088;-62
2021/06/22 12:16:25;;;;;;;3.55;1.70;;;;;;;;;;5041033;28;20092;-61
2021/06/22 12:18:52;;;;;;;2.15;1.42;;;;;;;;;;5041515;28;20041;-62
2021/06/22 12:21:18;;;;;;;2.58;1.60;;;;;;;;;;5042364;28;20107;-62
2021/06/22 12:23:43;;;;;;;2.65;1.60;;;;;;;;;;5042895;28;20095;-62
2021/06/22 12:26:09;;;;;;;2.97;1.42;;;;;;;;;;5041806;28;20045;-62
2021/06/22 12:28:35;;;;;;;2.88;1.58;;;;;;;;;;5042565;28;20033;-62
2021/06/22 12:31:02;;;;;;;2.08;1.58;;;;;;;;;;5040792;28;20034;-62
2021/06/22 12:33:29;;;;;;;3.33;1.58;;;;;;;;;;5043101;28;20037;-63
2021/06/22 12:36:00;;;;;;;3.22;1.55;;;;;;;;;;5040673;28;20486;-62
2021/06/22 12:38:25;;;;;;;2.78;1.52;;;;;;;;;;5041289;28;20046;-62
2021/06/22 12:40:55;;;;;;;2.50;1.50;;;;;;;;;;5040522;28;20037;-62
2021/06/22 12:43:22;;;;;;;2.00;1.15;;;;;;;;;;5041847;28;20038;-62
2021/06/22 12:46:00;;;;;;;2.45;1.58;;;;;;;;;;5037659;28;20045;-62
2021/06/22 12:48:26;;;;;;;2.85;1.48;;;;;;;;;;5023968;28;20037;-62
2021/06/22 12:50:51;;;;;;;2.13;1.63;;;;;;;;;;5042138;28;20032;-62
2021/06/22 12:53:16;;;;;;;3.08;1.55;;;;;;;;;;5024103;28;20050;-62
2021/06/22 12:58:10;;;;;;;1.55;1.30;;;;;;;;;;5041568;28;20030;-62
2021/06/22 13:00:37;;;;;;;1.95;1.30;;;;;;;;;;5033403;28;20029;-62
2021/06/22 13:03:14;;;;;;;2.47;1.38;;;;;;;;;;5042218;28;20108;-62
2021/06/22 13:05:40;;;;;;;2.42;1.35;;;;;;;;;;5041043;28;20132;-62
2021/06/22 13:08:06;;;;;;;1.25;1.15;;;;;;;;;;5041284;28;20112;-62
2021/06/22 13:10:41;;;;;;;3.95;1.67;;;;;;;;;;5034494;28;20143;-62
2021/06/22 13:13:06;;;;;;;3.38;1.52;;;;;;;;;;5041460;28;20053;-62
2021/06/22 13:15:32;;;;;;;2.10;1.33;;;;;;;;;;5041691;28;20041;-62
2021/06/22 13:17:57;;;;;;;2.88;1.50;;;;;;;;;;5032606;28;20041;-62
2021/06/22 13:20:24;;;;;;;2.65;1.30;;;;;;;;;;5023505;28;20088;-62
2021/06/22 13:22:49;;;;;;;2.42;1.30;;;;;;;;;;5040087;28;20030;-62
2021/06/22 13:25:16;;;;;;;2.72;1.27;;;;;;;;;;5039948;28;20505;-62
2021/06/22 13:27:47;;;;;;;1.35;1.20;;;;;;;;;;5023681;28;20540;-62
2021/06/22 13:30:17;;;;;;;3.58;1.80;;;;;;;;;;5041843;28;20097;-62
2021/06/22 13:32:50;;;;;;;3.63;1.50;;;;;;;;;;5039934;28;20491;-62
2021/06/22 13:35:23;;;;;;;2.13;1.40;;;;;;;;;;5040376;28;20585;-62
2021/06/22 13:38:00;;;;;;;1.73;1.42;;;;;;;;;;5041370;28;20050;-62
2021/06/22 13:40:32;;;;;;;2.55;1.65;;;;;;;;;;5040931;28;20538;-62
2021/06/22 13:43:14;;;;;;;2.92;1.88;;;;;;;;;;5042119;28;20041;-62
2021/06/22 13:45:53;;;;;;;4.22;1.95;;;;;;;;;;5040348;28;20041;-62
2021/06/22 13:48:32;;;;;;;2.00;1.50;;;;;;;;;;5025906;28;20045;-62
2021/06/22 13:51:05;;;;;;;2.63;1.45;;;;;;;;;;5018507;28;20042;-63
2021/06/22 13:53:35;;;;;;;3.33;1.77;;;;;;;;;;5040910;28;21125;-62
2021/06/22 13:56:01;;;;;;;2.33;1.50;;;;;;;;;;5041016;28;20092;-62
2021/06/22 13:58:26;;;;;;;3.40;1.60;;;;;;;;;;5039431;28;20909;-63
2021/06/22 14:00:52;;;;;;;2.70;1.42;;;;;;;;;;5041761;28;20052;-62
2021/06/22 14:03:18;;;;;;;2.83;1.52;;;;;;;;;;5023513;28;20041;-62
2021/06/22 14:05:44;;;;;;;3.75;1.65;;;;;;;;;;5039131;28;20052;-62
2021/06/22 14:08:10;;;;;;;3.00;1.48;;;;;;;;;;5038719;28;20034;-62
2021/06/22 14:10:37;;;;;;;2.92;1.50;;;;;;;;;;5034764;28;20370;-64
2021/06/22 14:13:04;;;;;;;2.65;1.33;;;;;;;;;;5039756;28;20502;-62
2021/06/22 14:15:30;;;;;;;3.03;1.67;;;;;;;;;;5040865;28;20029;-62
2021/06/22 14:17:55;;;;;;;2.35;1.30;;;;;;;;;;5039303;28;20029;-62
2021/06/22 14:20:22;;;;;;;2.53;1.50;;;;;;;;;;5041278;28;20034;-62
2021/06/22 14:22:47;;;;;;;2.03;1.30;;;;;;;;;;5056734;28;20134;-62
2021/06/22 14:25:13;;;;;;;2.47;1.30;;;;;;;;;;5040539;28;20992;-62
2021/06/22 14:27:39;;;;;;;2.55;1.60;;;;;;;;;;5039417;28;20037;-62
2021/06/22 14:30:05;;;;;;;2.22;1.23;;;;;;;;;;5042167;28;20469;-63
2021/06/22 14:32:31;;;;;;;3.70;1.75;;;;;;;;;;5043802;28;20033;-63
2021/06/22 14:35:00;;;;;;;2.30;1.40;;;;;;;;;;5043111;28;20022;-63
2021/06/22 14:37:28;;;;;;;2.42;1.70;;;;;;;;;;5043239;28;20037;-62
2021/06/22 14:39:54;;;;;;;1.83;1.30;;;;;;;;;;5043533;28;20029;-64
2021/06/22 14:42:20;;;;;;;3.05;1.50;;;;;;;;;;5042803;28;20980;-65
2021/06/22 14:44:45;;;;;;;2.17;1.50;;;;;;;;;;5042931;28;20045;-64
2021/06/22 14:47:11;;;;;;;2.65;1.40;;;;;;;;;;5038359;28;20041;-64
2021/06/22 14:49:36;;;;;;;2.65;1.40;;;;;;;;;;5043544;28;20444;-62
2021/06/22 14:52:02;;;;;;;2.60;1.40;;;;;;;;;;5043502;28;20043;-62